Time;durP1;ratioP1;P1;durP2;ratioP2;P2;SDS_P1;SDS_P2;PMS_P1;PMS_P2;Temp;Humidity;BMP_temperature;BMP_pressure;BME280_temperature;BME280_humidity;BME280_pressure;Samples;Min_cycle;Max_cycle;Signal;HPM_P1;HPM_P2
2022/02/18 00:01:31;;;;;;;29.02;4.18;;;;;;;4.80;100.00;98683.31;4793116;30;20352;-81
2022/02/18 00:04:00;;;;;;;28.58;4.85;;;;;;;4.89;100.00;98700.69;4773298;30;20134;-81
2022/02/18 00:06:26;;;;;;;28.08;4.15;;;;;;;4.90;100.00;98702.31;4778773;30;20046;-82
2022/02/18 00:08:51;;;;;;;24.50;3.85;;;;;;;4.96;100.00;98706.78;4785575;30;20027;-81
2022/02/18 00:11:17;;;;;;;28.48;4.47;;;;;;;4.91;100.00;98709.31;4747546;30;20044;-80
2022/02/18 00:13:43;;;;;;;19.42;3.28;;;;;;;4.94;100.00;98711.53;4761217;30;20046;-81
2022/02/18 00:16:08;;;;;;;21.23;3.70;;;;;;;4.93;100.00;98696.56;4777550;30;20137;-81
2022/02/18 00:18:34;;;;;;;21.73;3.85;;;;;;;4.96;100.00;98704.13;4762044;30;20055;-81
2022/02/18 00:21:00;;;;;;;28.75;4.70;;;;;;;4.97;100.00;98713.78;4765424;30;20043;-81
2022/02/18 00:23:26;;;;;;;18.48;3.15;;;;;;;4.98;100.00;98715.41;4782100;30;20046;-81
2022/02/18 00:25:51;;;;;;;14.52;2.40;;;;;;;4.78;100.00;98680.06;4792706;29;20063;-81
2022/02/18 00:28:17;;;;;;;21.38;3.28;;;;;;;4.98;100.00;98712.75;4792449;29;20116;-81
2022/02/18 00:30:43;;;;;;;30.80;5.45;;;;;;;4.77;100.00;98695.25;4774213;29;20052;-81
2022/02/18 00:33:10;;;;;;;24.48;3.90;;;;;;;4.94;100.00;98715.00;4776450;30;20377;-80
2022/02/18 00:35:36;;;;;;;19.20;3.70;;;;;;;5.01;100.00;98725.63;4775705;30;20032;-81
2022/02/18 00:38:02;;;;;;;31.65;4.70;;;;;;;5.05;100.00;98729.50;4777704;30;20069;-81
2022/02/18 00:40:28;;;;;;;29.75;4.72;;;;;;;5.01;100.00;98733.63;4783809;30;20465;-80
2022/02/18 00:42:54;;;;;;;43.53;5.93;;;;;;;5.04;100.00;98735.06;4775541;30;20063;-81
2022/02/18 00:45:20;;;;;;;39.55;5.60;;;;;;;4.99;100.00;98741.00;4776337;30;20035;-81
2022/02/18 00:47:46;;;;;;;33.13;4.82;;;;;;;4.83;100.00;98712.19;4775383;30;20042;-81
2022/02/18 00:50:12;;;;;;;23.85;4.47;;;;;;;5.06;100.00;98738.31;4761267;30;20113;-82
2022/02/18 00:52:38;;;;;;;33.55;5.03;;;;;;;4.92;100.00;98729.56;4774506;30;20043;-81
2022/02/18 00:55:05;;;;;;;31.42;4.82;;;;;;;5.06;100.00;98739.13;4774889;30;20086;-80
2022/02/18 00:57:30;;;;;;;27.50;5.20;;;;;;;5.03;100.00;98718.22;4775783;30;20035;-80
2022/02/18 00:59:56;;;;;;;23.77;4.30;;;;;;;5.10;100.00;98721.69;4774631;30;20123;-81
2022/02/18 01:02:21;;;;;;;27.40;3.50;;;;;;;5.12;100.00;98732.94;4777187;30;20055;-82
2022/02/18 01:04:46;;;;;;;27.98;4.35;;;;;;;5.02;100.00;98729.13;4775408;30;20085;-82
2022/02/18 01:07:12;;;;;;;21.10;3.13;;;;;;;4.89;100.00;98711.34;4772162;30;20036;-81
2022/02/18 01:09:37;;;;;;;21.52;3.78;;;;;;;5.10;100.00;98750.19;4773454;30;20044;-81
2022/02/18 01:12:03;;;;;;;27.20;4.50;;;;;;;5.04;100.00;98749.19;4776909;30;20050;-81
2022/02/18 01:14:28;;;;;;;22.60;4.05;;;;;;;4.95;100.00;98735.28;4785256;30;20096;-82
2022/02/18 01:16:54;;;;;;;17.15;2.95;;;;;;;5.02;100.00;98742.44;4774956;30;20039;-81
2022/02/18 01:19:19;;;;;;;23.23;3.75;;;;;;;5.11;100.00;98752.66;4773881;30;20499;-82
2022/02/18 01:21:45;;;;;;;25.83;3.72;;;;;;;5.01;100.00;98776.28;4769129;30;20040;-81
2022/02/18 01:24:11;;;;;;;26.33;4.65;;;;;;;4.99;100.00;98757.00;4793442;29;20507;-81
2022/02/18 01:26:37;;;;;;;21.08;3.70;;;;;;;4.77;100.00;98743.19;4781229;29;20054;-81
2022/02/18 01:29:03;;;;;;;27.83;3.80;;;;;;;4.94;100.00;98759.50;4773527;30;20032;-81
2022/02/18 01:31:29;;;;;;;21.02;2.85;;;;;;;4.87;100.00;98770.19;4776311;30;20090;-81
2022/02/18 01:33:55;;;;;;;16.65;2.92;;;;;;;4.91;100.00;98797.25;4778045;30;20091;-81
2022/02/18 01:36:25;;;;;;;19.98;3.03;;;;;;;5.01;100.00;98804.78;4760277;30;20063;-81
2022/02/18 01:38:51;;;;;;;22.65;3.25;;;;;;;4.93;100.00;98805.81;4757192;30;20466;-81
2022/02/18 01:41:18;;;;;;;22.20;3.35;;;;;;;4.80;100.00;98765.91;4754785;30;20047;-80
2022/02/18 01:44:05;;;;;;;23.23;2.97;;;;;;;4.94;100.00;98812.81;4773523;30;20035;-81
2022/02/18 01:46:31;;;;;;;15.45;1.70;;;;;;;4.98;100.00;98816.69;4778722;30;20103;-81
2022/02/18 01:48:56;;;;;;;22.58;3.20;;;;;;;4.99;100.00;98823.63;4776647;30;20469;-82
2022/02/18 01:51:23;;;;;;;20.42;3.20;;;;;;;5.01;100.00;98828.78;4781574;30;20043;-82
2022/02/18 01:53:49;;;;;;;20.58;3.65;;;;;;;4.99;100.00;98834.31;4774664;30;20032;-81
2022/02/18 01:56:18;;;;;;;25.45;3.70;;;;;;;4.80;100.00;98803.22;4774930;30;20043;-81
2022/02/18 01:58:44;;;;;;;25.52;3.70;;;;;;;4.99;100.00;98836.97;4774519;30;20047;-81
2022/02/18 02:01:10;;;;;;;27.83;3.13;;;;;;;5.02;100.00;98855.22;4779813;30;20032;-81
2022/02/18 02:03:36;;;;;;;27.45;4.07;;;;;;;4.99;100.00;98846.81;4776637;30;20036;-82
2022/02/18 02:06:03;;;;;;;22.33;3.30;;;;;;;4.87;100.00;98836.00;4779754;30;20093;-81
2022/02/18 02:08:29;;;;;;;25.40;3.92;;;;;;;5.00;100.00;98851.94;4779292;30;20031;-81
2022/02/18 02:10:55;;;;;;;19.23;3.85;;;;;;;4.89;100.00;98871.25;4778553;30;20058;-81
2022/02/18 02:13:35;;;;;;;19.45;2.97;;;;;;;4.90;100.00;98857.72;4777564;30;20036;-81
2022/02/18 02:16:01;;;;;;;19.90;3.88;;;;;;;4.93;100.00;98864.47;4782219;30;20416;-81
2022/02/18 02:18:27;;;;;;;24.27;3.88;;;;;;;4.87;100.00;98865.31;4794918;29;20061;-81
2022/02/18 02:20:53;;;;;;;24.30;4.03;;;;;;;4.93;100.00;98864.47;4804469;29;20039;-81
2022/02/18 02:23:19;;;;;;;29.60;4.50;;;;;;;4.76;100.00;98839.31;4790662;29;20474;-81
2022/02/18 02:25:45;;;;;;;25.77;3.85;;;;;;;4.86;100.00;98859.16;4778626;30;20036;-82
2022/02/18 02:28:11;;;;;;;22.45;2.63;;;;;;;4.89;100.00;98860.59;4777404;30;20458;-81
2022/02/18 02:30:37;;;;;;;33.92;4.35;;;;;;;4.85;100.00;98860.19;4777176;30;20119;-81
2022/02/18 02:33:02;;;;;;;23.98;3.45;;;;;;;4.84;100.00;98852.41;4776210;30;20035;-81
2022/02/18 02:35:28;;;;;;;18.38;2.80;;;;;;;4.87;100.00;98863.47;4778092;30;20035;-81
2022/02/18 02:37:54;;;;;;;20.10;3.03;;;;;;;4.81;100.00;98872.31;4774800;30;20388;-81
2022/02/18 02:40:19;;;;;;;35.15;4.53;;;;;;;4.82;100.00;98881.91;4777283;30;20036;-80
2022/02/18 02:42:48;;;;;;;23.70;4.00;;;;;;;4.69;100.00;98855.31;4777306;30;20046;-81
2022/02/18 02:45:15;;;;;;;32.35;4.72;;;;;;;4.84;100.00;98887.06;4781101;30;20024;-81
2022/02/18 02:47:44;;;;;;;28.58;3.92;;;;;;;4.87;100.00;98905.28;4777249;30;20078;-82
2022/02/18 02:50:11;;;;;;;28.48;3.88;;;;;;;4.83;100.00;98882.72;4776986;30;20535;-81
2022/02/18 02:52:36;;;;;;;38.63;4.45;;;;;;;4.85;100.00;98894.00;4777566;30;20035;-81
2022/02/18 02:55:04;;;;;;;21.35;3.65;;;;;;;4.81;100.00;98885.63;4785141;30;20356;-81
2022/02/18 02:57:29;;;;;;;25.85;4.05;;;;;;;4.71;100.00;98855.94;4781873;30;20071;-82
2022/02/18 02:59:56;;;;;;;29.70;5.60;;;;;;;4.88;100.00;98882.94;4775513;30;20067;-80
2022/02/18 03:02:21;;;;;;;27.48;4.03;;;;;;;4.89;100.00;98892.56;4776756;30;20042;-81
2022/02/18 03:04:46;;;;;;;26.58;3.45;;;;;;;4.94;100.00;98882.91;4763613;30;20035;-82
2022/02/18 03:07:12;;;;;;;31.55;5.13;;;;;;;4.83;100.00;98856.91;4793377;30;20043;-80
2022/02/18 03:09:37;;;;;;;31.48;4.82;;;;;;;4.98;100.00;98864.66;4791832;29;20117;-81
2022/02/18 03:12:03;;;;;;;25.48;4.30;;;;;;;4.55;100.00;98795.94;4778708;30;20047;-81
2022/02/18 03:14:28;;;;;;;24.40;3.53;;;;;;;4.89;100.00;98849.91;4761249;30;20042;-79
2022/02/18 03:16:55;;;;;;;21.10;4.30;;;;;;;4.86;100.00;98845.81;4777697;30;20035;-81
2022/02/18 03:19:20;;;;;;;22.25;3.83;;;;;;;4.85;100.00;98838.06;4760266;30;20028;-82
2022/02/18 03:21:46;;;;;;;31.05;4.93;;;;;;;4.86;100.00;98861.81;4775756;30;20093;-81
2022/02/18 03:24:11;;;;;;;32.38;4.50;;;;;;;5.00;100.00;98894.59;4778181;30;20023;-81
2022/02/18 03:26:36;;;;;;;31.27;4.43;;;;;;;4.95;100.00;98871.22;4770647;30;20051;-82
2022/02/18 03:29:02;;;;;;;25.55;3.60;;;;;;;4.92;100.00;98854.84;4773252;30;20036;-82
2022/02/18 03:31:27;;;;;;;31.83;4.65;;;;;;;4.85;100.00;98868.19;4774075;30;20116;-80
2022/02/18 03:33:52;;;;;;;31.92;5.63;;;;;;;5.03;100.00;98886.16;4782228;29;20039;-81
2022/02/18 03:36:18;;;;;;;25.25;4.18;;;;;;;5.09;100.00;98881.84;4777262;30;20522;-81
2022/02/18 03:38:43;;;;;;;29.30;6.15;;;;;;;4.96;100.00;98888.03;4774523;30;20044;-81
2022/02/18 03:41:09;;;;;;;26.73;4.30;;;;;;;4.83;100.00;98880.88;4775749;30;20050;-81
2022/02/18 03:43:34;;;;;;;31.45;4.82;;;;;;;4.85;100.00;98892.16;4759069;30;20035;-80
2022/02/18 03:46:00;;;;;;;24.40;3.70;;;;;;;5.03;100.00;98915.47;4777335;30;20087;-81
2022/02/18 03:48:26;;;;;;;34.60;4.78;;;;;;;5.07;100.00;98903.38;4779542;30;20036;-81
2022/02/18 03:50:51;;;;;;;32.70;4.18;;;;;;;5.03;100.00;98904.00;4772722;30;20110;-81
2022/02/18 03:53:17;;;;;;;35.20;5.57;;;;;;;4.69;100.00;98866.78;4780508;30;20031;-80
2022/02/18 03:55:42;;;;;;;24.75;3.95;;;;;;;4.85;100.00;98905.50;4778162;30;20055;-81
2022/02/18 03:58:07;;;;;;;34.97;4.80;;;;;;;4.99;100.00;98908.94;4763929;30;20073;-81
2022/02/18 04:00:33;;;;;;;26.80;4.00;;;;;;;4.97;100.00;98921.66;4782463;30;20040;-81
2022/02/18 04:02:59;;;;;;;26.95;4.18;;;;;;;4.94;100.00;98917.56;4786563;30;20042;-81
2022/02/18 04:05:24;;;;;;;37.88;6.03;;;;;;;4.99;100.00;98924.09;4758229;30;20119;-81
2022/02/18 04:07:49;;;;;;;23.58;3.65;;;;;;;4.72;100.00;98885.00;4761125;30;20371;-81
2022/02/18 04:10:15;;;;;;;30.80;4.38;;;;;;;4.94;100.00;98928.22;4773358;30;20089;-82
2022/02/18 04:12:40;;;;;;;33.90;5.40;;;;;;;4.91;100.00;98917.97;4776866;30;20041;-81
2022/02/18 04:15:06;;;;;;;25.45;4.63;;;;;;;4.97;100.00;98936.81;4745838;30;20036;-82
2022/02/18 04:17:32;;;;;;;36.38;5.20;;;;;;;5.02;100.00;98945.03;4776842;30;20040;-81
2022/02/18 04:19:58;;;;;;;32.33;4.72;;;;;;;5.05;100.00;98952.59;4776481;30;20032;-81
2022/02/18 04:22:24;;;;;;;27.48;4.50;;;;;;;4.89;100.00;98935.19;4774761;30;20042;-80
2022/02/18 04:24:50;;;;;;;27.33;5.28;;;;;;;4.99;100.00;98956.91;4776356;30;20109;-81
2022/02/18 04:27:16;;;;;;;29.77;4.55;;;;;;;4.97;100.00;98958.13;4774761;30;20040;-81
2022/02/18 04:29:42;;;;;;;27.42;4.43;;;;;;;5.01;100.00;98949.53;4786690;30;20047;-81
2022/02/18 04:32:08;;;;;;;35.20;4.90;;;;;;;4.99;100.00;98956.09;4774054;30;20066;-81
2022/02/18 04:34:35;;;;;;;41.08;5.07;;;;;;;4.99;100.00;98962.25;4774549;30;20095;-81
2022/02/18 04:37:00;;;;;;;35.67;5.13;;;;;;;4.98;100.00;98971.28;4761625;30;20043;-80
2022/02/18 04:39:26;;;;;;;29.10;3.83;;;;;;;4.97;100.00;98971.47;4776017;30;20468;-81
2022/02/18 04:41:51;;;;;;;15.75;2.70;;;;;;;4.76;100.00;98943.22;4774081;30;20835;-81
2022/02/18 04:44:17;;;;;;;16.25;3.15;;;;;;;4.95;100.00;98980.50;4775690;30;20421;-81
2022/02/18 04:46:43;;;;;;;21.02;3.15;;;;;;;4.95;100.00;98993.00;4776233;30;20045;-80
2022/02/18 04:49:09;;;;;;;22.13;3.40;;;;;;;4.97;100.00;98974.97;4775292;30;20533;-82
2022/02/18 04:51:37;;;;;;;29.05;4.95;;;;;;;4.90;100.00;98966.16;4760662;30;20039;-81
2022/02/18 04:54:03;;;;;;;20.58;2.95;;;;;;;4.87;100.00;98982.56;4772510;30;20471;-81
2022/02/18 04:56:29;;;;;;;26.50;3.20;;;;;;;4.92;100.00;98983.56;4773318;30;20043;-81
2022/02/18 04:58:54;;;;;;;18.45;2.63;;;;;;;4.88;100.00;99002.88;4775820;30;20092;-81
2022/02/18 05:01:19;;;;;;;19.05;3.03;;;;;;;4.87;100.00;99001.22;4762880;30;20066;-81
2022/02/18 05:03:45;;;;;;;19.55;3.67;;;;;;;4.62;100.00;98964.53;4777147;30;20031;-80
2022/02/18 05:06:10;;;;;;;23.83;3.08;;;;;;;4.87;100.00;99015.38;4771971;30;20054;-81
2022/02/18 05:08:36;;;;;;;26.70;3.47;;;;;;;4.86;100.00;99010.22;4780452;30;20040;-81
2022/02/18 05:11:01;;;;;;;24.77;4.13;;;;;;;4.79;100.00;99004.91;4782846;30;20040;-80
2022/02/18 05:13:27;;;;;;;20.25;2.90;;;;;;;4.84;100.00;99006.97;4777808;30;20035;-81
2022/02/18 05:15:52;;;;;;;17.17;2.88;;;;;;;4.89;100.00;99015.16;4777487;30;20027;-82
2022/02/18 05:18:17;;;;;;;25.33;3.20;;;;;;;4.86;100.00;99013.72;4782261;30;20070;-81
2022/02/18 05:20:43;;;;;;;26.20;3.70;;;;;;;4.91;100.00;99018.44;4753149;30;20039;-81
2022/02/18 05:23:08;;;;;;;25.05;3.47;;;;;;;4.80;100.00;98995.06;4777456;30;20032;-81
2022/02/18 05:25:34;;;;;;;31.38;4.22;;;;;;;4.63;100.00;98966.16;4776199;30;20040;-81
2022/02/18 05:28:02;;;;;;;21.90;3.50;;;;;;;4.72;100.00;98993.44;4775451;30;20024;-81
2022/02/18 05:30:28;;;;;;;23.98;4.30;;;;;;;4.87;100.00;99020.69;4774044;30;20044;-81
2022/02/18 05:32:53;;;;;;;15.73;3.05;;;;;;;4.87;100.00;99022.56;4774816;30;20043;-81
2022/02/18 05:35:19;;;;;;;21.95;3.30;;;;;;;4.88;100.00;99042.84;4778561;30;20035;-80
2022/02/18 05:37:44;;;;;;;20.70;3.50;;;;;;;4.88;100.00;99040.97;4773663;30;20036;-80
2022/02/18 05:40:10;;;;;;;24.45;3.60;;;;;;;4.88;100.00;99030.31;4774526;30;20111;-80
2022/02/18 05:42:36;;;;;;;27.35;4.05;;;;;;;4.85;100.00;99025.41;4773130;30;20043;-81
2022/02/18 05:45:02;;;;;;;29.63;4.25;;;;;;;4.60;100.00;98985.25;4771005;30;20139;-80
2022/02/18 05:47:27;;;;;;;29.63;4.38;;;;;;;4.89;100.00;99020.47;4773754;30;20028;-79
2022/02/18 05:49:53;;;;;;;14.00;1.98;;;;;;;4.87;100.00;99027.88;4771042;30;20395;-80
2022/02/18 05:52:19;;;;;;;27.08;4.13;;;;;;;4.88;100.00;99024.19;4769225;30;20035;-80
2022/02/18 05:54:44;;;;;;;26.38;4.28;;;;;;;4.78;100.00;99007.78;4764888;30;20080;-79
2022/02/18 05:57:10;;;;;;;30.98;4.00;;;;;;;4.85;100.00;99036.06;4777338;30;20077;-79
2022/02/18 05:59:35;;;;;;;30.67;4.78;;;;;;;4.83;100.00;99040.78;4780301;29;20030;-78
2022/02/18 06:02:01;;;;;;;27.77;4.28;;;;;;;4.60;100.00;98998.56;4760854;30;20070;-81
2022/02/18 06:04:26;;;;;;;31.50;4.85;;;;;;;4.87;100.00;99034.03;4751507;30;20047;-80
2022/02/18 06:06:52;;;;;;;38.28;4.70;;;;;;;4.85;100.00;99043.25;4750004;30;20109;-79
2022/02/18 06:09:17;;;;;;;29.73;3.92;;;;;;;4.82;100.00;99035.66;4766464;30;20050;-79
2022/02/18 06:11:43;;;;;;;29.08;3.67;;;;;;;4.85;100.00;99053.91;4768175;30;20100;-80
2022/02/18 06:14:08;;;;;;;27.02;3.95;;;;;;;4.84;100.00;99057.59;4768988;30;20112;-81
2022/02/18 06:16:34;;;;;;;19.52;2.88;;;;;;;4.86;100.00;99063.53;4776004;30;20032;-80
2022/02/18 06:18:59;;;;;;;22.08;4.00;;;;;;;4.60;100.00;99025.22;4769365;30;20036;-80
2022/02/18 06:21:25;;;;;;;41.45;5.72;;;;;;;4.72;100.00;99055.53;4773868;30;20039;-79
2022/02/18 06:23:50;;;;;;;25.50;3.95;;;;;;;4.84;100.00;99079.75;4766485;30;20036;-80
2022/02/18 06:26:16;;;;;;;25.25;3.67;;;;;;;4.79;100.00;99070.72;4763975;30;20466;-79
2022/02/18 06:28:41;;;;;;;32.35;4.30;;;;;;;4.82;100.00;99080.97;4771005;30;20040;-80
2022/02/18 06:31:07;;;;;;;26.13;3.80;;;;;;;4.60;100.00;99049.19;4770055;29;20066;-79
2022/02/18 06:33:33;;;;;;;21.88;2.92;;;;;;;4.64;100.00;99047.75;4769930;30;20434;-79
2022/02/18 06:35:59;;;;;;;32.45;3.90;;;;;;;4.77;100.00;99067.41;4774899;30;20462;-79
2022/02/18 06:38:24;;;;;;;21.63;3.42;;;;;;;4.77;100.00;99070.06;4770734;30;20044;-80
2022/02/18 06:40:50;;;;;;;29.98;5.18;;;;;;;4.64;100.00;99038.94;4753290;30;20728;-80
2022/02/18 06:43:16;;;;;;;24.23;3.30;;;;;;;4.76;100.00;99074.59;4747327;30;20043;-79
2022/02/18 06:45:41;;;;;;;20.63;3.42;;;;;;;4.77;100.00;99083.41;4767731;30;20032;-78
2022/02/18 06:48:09;;;;;;;24.08;3.25;;;;;;;4.81;100.00;99082.00;4741058;30;20536;-80
2022/02/18 06:50:35;;;;;;;35.95;3.95;;;;;;;4.74;100.00;99068.66;4771202;30;20032;-79
2022/02/18 06:53:01;;;;;;;24.77;3.88;;;;;;;4.89;100.00;99097.78;4772556;30;20079;-79
2022/02/18 06:55:26;;;;;;;32.38;3.92;;;;;;;4.91;100.00;99087.75;4772703;30;20039;-79
2022/02/18 06:57:57;;;;;;;29.48;3.92;;;;;;;4.87;100.00;99089.19;4776513;30;20474;-79
2022/02/18 07:00:24;;;;;;;25.77;3.13;;;;;;;4.83;100.00;99082.59;4777774;29;20091;-79
2022/02/18 07:02:50;;;;;;;22.98;3.15;;;;;;;4.83;100.00;99079.94;4771485;30;20027;-80
2022/02/18 07:05:16;;;;;;;23.30;3.00;;;;;;;4.84;100.00;99084.25;4767978;30;20039;-80
2022/02/18 07:07:42;;;;;;;21.77;2.28;;;;;;;4.69;100.00;99063.94;4766450;30;20118;-80
2022/02/18 07:10:10;;;;;;;20.00;2.22;;;;;;;4.75;100.00;99069.47;4767760;30;20054;-80
2022/02/18 07:12:36;;;;;;;18.50;3.13;;;;;;;4.75;100.00;99056.97;4776512;30;20483;-80
2022/02/18 07:15:02;;;;;;;23.30;3.40;;;;;;;4.69;100.00;99058.59;4777301;30;20059;-80
2022/02/18 07:17:29;;;;;;;22.55;2.75;;;;;;;4.81;100.00;99072.16;4775864;30;20493;-81
2022/02/18 07:19:55;;;;;;;20.17;3.00;;;;;;;4.76;100.00;99065.78;4777079;30;20549;-79
2022/02/18 07:22:22;;;;;;;23.83;3.28;;;;;;;4.74;100.00;99062.53;4770169;30;20043;-80
2022/02/18 07:24:49;;;;;;;24.13;2.80;;;;;;;4.80;100.00;99054.53;4766768;30;20425;-81
2022/02/18 07:27:14;;;;;;;19.10;2.10;;;;;;;4.79;100.00;99060.03;4778949;29;20463;-80
2022/02/18 07:29:40;;;;;;;17.48;2.38;;;;;;;4.81;100.00;99069.47;4765670;30;20051;-80
2022/02/18 07:32:07;;;;;;;21.77;3.13;;;;;;;4.84;100.00;99057.59;4770097;30;20039;-80
2022/02/18 07:34:32;;;;;;;21.80;3.67;;;;;;;4.80;100.00;99059.88;4767849;30;20062;-80
2022/02/18 07:36:58;;;;;;;20.92;3.10;;;;;;;4.87;100.00;99070.53;4774822;30;20032;-80
2022/02/18 07:39:23;;;;;;;20.92;3.15;;;;;;;4.85;100.00;99057.38;4759796;30;20893;-81
2022/02/18 07:41:48;;;;;;;24.77;3.08;;;;;;;4.81;100.00;99040.16;4778508;30;20051;-81
2022/02/18 07:44:14;;;;;;;21.85;3.13;;;;;;;4.88;100.00;99056.16;4750269;30;20061;-82
2022/02/18 07:46:39;;;;;;;16.92;2.53;;;;;;;4.89;100.00;99058.59;4782977;30;20036;-81
2022/02/18 07:49:05;;;;;;;23.98;3.20;;;;;;;4.54;100.00;99028.69;4777999;30;20024;-80
2022/02/18 07:51:30;;;;;;;24.60;3.17;;;;;;;4.93;100.00;99061.69;4772082;30;20044;-80
2022/02/18 07:53:56;;;;;;;17.55;2.60;;;;;;;4.96;100.00;99074.59;4771857;30;20028;-81
2022/02/18 07:56:21;;;;;;;25.05;3.47;;;;;;;5.03;100.00;99063.94;4778450;29;20463;-81
2022/02/18 07:58:47;;;;;;;27.15;3.80;;;;;;;5.02;100.00;99076.44;4776816;30;20099;-82
2022/02/18 08:01:17;;;;;;;22.38;3.35;;;;;;;5.01;100.00;99066.81;4773220;30;20428;-81
2022/02/18 08:03:46;;;;;;;19.50;3.17;;;;;;;5.13;100.00;99067.00;4759793;30;20061;-80
2022/02/18 08:06:11;;;;;;;27.75;3.25;;;;;;;5.18;100.00;99084.03;4773330;30;20065;-81
2022/02/18 08:08:39;;;;;;;30.45;3.78;;;;;;;5.23;100.00;99079.91;4780871;30;20028;-80
2022/02/18 08:11:06;;;;;;;28.23;4.35;;;;;;;5.18;100.00;99073.38;4781012;30;20036;-81
2022/02/18 08:13:31;;;;;;;30.85;3.42;;;;;;;5.26;100.00;99082.16;4785422;30;20032;-81
2022/02/18 08:15:57;;;;;;;24.85;3.83;;;;;;;5.32;100.00;99078.69;4798553;30;20038;-81
2022/02/18 08:18:22;;;;;;;24.60;3.90;;;;;;;5.30;100.00;99072.75;4784735;30;20505;-80
2022/02/18 08:20:48;;;;;;;30.90;4.93;;;;;;;5.21;100.00;99064.13;4785491;30;20036;-82
2022/02/18 08:23:14;;;;;;;29.55;3.85;;;;;;;5.31;100.00;99093.06;4775684;30;20456;-80
2022/02/18 08:25:39;;;;;;;30.35;4.13;;;;;;;5.39;100.00;99101.63;4772097;30;20086;-80
2022/02/18 08:28:05;;;;;;;29.25;3.95;;;;;;;5.45;100.00;99101.84;4770545;30;20059;-80
2022/02/18 08:30:30;;;;;;;28.25;3.67;;;;;;;5.37;100.00;99098.38;4784297;30;20108;-80
2022/02/18 08:32:59;;;;;;;28.85;3.83;;;;;;;5.43;100.00;99099.41;4786315;29;20084;-80
2022/02/18 08:35:25;;;;;;;25.73;3.25;;;;;;;5.27;100.00;99086.50;4771584;30;20054;-80
2022/02/18 08:37:50;;;;;;;20.65;2.88;;;;;;;5.32;100.00;99086.69;4770007;30;20051;-80
2022/02/18 08:40:15;;;;;;;19.55;2.78;;;;;;;5.42;100.00;99106.56;4768922;30;20031;-80
2022/02/18 08:42:41;;;;;;;23.63;3.45;;;;;;;5.48;100.00;99114.78;4777089;30;20475;-80
2022/02/18 08:45:07;;;;;;;22.67;3.85;;;;;;;5.45;100.00;99116.00;4783203;30;20071;-80
2022/02/18 08:47:33;;;;;;;19.90;3.00;;;;;;;5.46;100.00;99122.16;4779464;30;20043;-80
2022/02/18 08:49:58;;;;;;;30.50;3.53;;;;;;;5.45;100.00;99124.00;4774070;30;20039;-81
2022/02/18 08:52:24;;;;;;;29.30;3.70;;;;;;;5.36;100.00;99112.75;4775550;30;20583;-81
2022/02/18 08:54:49;;;;;;;39.03;4.15;;;;;;;5.41;100.00;99120.94;4774645;30;20035;-80
2022/02/18 08:57:14;;;;;;;30.27;4.57;;;;;;;5.48;100.00;99118.25;4750976;30;21182;-80
2022/02/18 08:59:40;;;;;;;31.05;3.88;;;;;;;5.54;100.00;99129.97;4775905;29;20047;-80
2022/02/18 09:02:07;;;;;;;31.67;4.40;;;;;;;5.57;100.00;99130.38;4774008;30;20063;-80
2022/02/18 09:04:32;;;;;;;23.88;4.40;;;;;;;5.65;100.00;99134.66;4770511;30;20036;-80
2022/02/18 09:06:57;;;;;;;28.95;4.03;;;;;;;5.63;100.00;99139.41;4771412;30;20050;-80
2022/02/18 09:09:23;;;;;;;45.80;4.63;;;;;;;5.63;100.00;99134.88;4775079;30;20165;-80
2022/02/18 09:11:49;;;;;;;28.63;3.30;;;;;;;5.76;100.00;99143.84;4775871;30;20546;-80
2022/02/18 09:14:17;;;;;;;23.10;4.07;;;;;;;5.74;100.00;99135.25;4776626;30;20044;-81
2022/02/18 09:16:44;;;;;;;31.15;3.92;;;;;;;6.01;100.00;99144.06;4774704;30;20091;-81
2022/02/18 09:19:09;;;;;;;29.17;4.68;;;;;;;6.03;100.00;99145.47;4776302;30;20020;-80
2022/02/18 09:21:34;;;;;;;20.23;4.07;;;;;;;6.03;100.00;99140.16;4776888;29;20038;-80
2022/02/18 09:24:00;;;;;;;32.03;4.95;;;;;;;5.92;100.00;99122.06;4773873;29;20036;-80
2022/02/18 09:26:26;;;;;;;22.45;3.90;;;;;;;6.04;100.00;99124.94;4758188;30;20040;-82
2022/02/18 09:28:55;;;;;;;23.38;3.63;;;;;;;6.02;100.00;99129.66;4771673;30;20077;-79
2022/02/18 09:31:21;;;;;;;20.92;3.50;;;;;;;6.14;100.00;99137.84;4766272;30;20141;-79
2022/02/18 09:33:48;;;;;;;26.92;3.53;;;;;;;5.96;100.00;99093.97;4756248;30;20042;-79
2022/02/18 09:36:14;;;;;;;23.80;3.70;;;;;;;6.19;100.00;99132.69;4769439;30;20177;-80
2022/02/18 09:38:40;;;;;;;24.42;3.83;;;;;;;6.10;100.00;99132.13;4756480;30;20379;-80
2022/02/18 09:41:07;;;;;;;34.10;5.28;;;;;;;6.13;100.00;99117.53;4773631;30;20035;-81
2022/02/18 09:43:33;;;;;;;29.90;3.45;;;;;;;6.12;100.00;99132.69;4772877;30;20040;-80
2022/02/18 09:46:01;;;;;;;27.83;3.80;;;;;;;6.14;100.00;99117.31;4768337;30;20450;-80
2022/02/18 09:48:27;;;;;;;33.90;4.20;;;;;;;6.13;100.00;99131.69;4768149;30;20482;-79
2022/02/18 09:50:52;;;;;;;21.95;3.90;;;;;;;6.20;100.00;99124.47;4768869;30;20051;-80
2022/02/18 09:53:20;;;;;;;22.63;4.03;;;;;;;6.19;100.00;99108.63;4752279;30;20043;-80
2022/02/18 09:55:47;;;;;;;30.95;4.05;;;;;;;6.33;100.00;99124.41;4769208;30;20070;-80
2022/02/18 09:58:16;;;;;;;28.05;4.28;;;;;;;6.30;100.00;99114.16;4754624;30;20040;-80
2022/02/18 10:00:41;;;;;;;28.83;3.85;;;;;;;6.33;100.00;99121.75;4772931;30;20019;-81
2022/02/18 10:03:08;;;;;;;26.65;3.92;;;;;;;6.22;100.00;99100.22;4773872;30;20518;-81
2022/02/18 10:05:34;;;;;;;19.58;4.20;;;;;;;6.28;100.00;99102.03;4772499;30;20074;-80
2022/02/18 10:08:18;;;;;;;27.10;4.35;;;;;;;6.19;100.00;99090.78;4771592;30;20067;-80
2022/02/18 10:11:06;;;;;;;31.08;4.20;;;;;;;5.86;100.00;99048.16;4783680;30;20063;-80
2022/02/18 10:13:37;;;;;;;30.33;4.28;;;;;;;6.34;100.00;99115.34;4768647;29;20131;-80
2022/02/18 10:16:04;;;;;;;26.10;3.90;;;;;;;6.28;100.00;99116.19;4763981;30;20362;-80
2022/02/18 10:18:51;;;;;;;25.50;3.85;;;;;;;6.14;100.00;99097.78;4747392;30;20431;-80
2022/02/18 10:21:24;;;;;;;26.48;3.65;;;;;;;6.20;100.00;99103.09;4765702;30;20037;-81
2022/02/18 10:23:52;;;;;;;21.00;3.30;;;;;;;6.28;100.00;99102.84;4780139;29;20058;-80
2022/02/18 10:26:33;;;;;;;26.52;4.60;;;;;;;6.31;100.00;99102.41;4768674;30;20042;-80
2022/02/18 10:28:58;;;;;;;22.48;3.53;;;;;;;6.25;100.00;99081.09;4772191;30;20040;-80
2022/02/18 10:31:23;;;;;;;26.33;4.25;;;;;;;6.41;100.00;99106.50;4777334;30;20506;-79
2022/02/18 10:34:06;;;;;;;21.08;3.38;;;;;;;6.44;100.00;99114.91;4770393;30;20067;-79
2022/02/18 10:36:45;;;;;;;23.10;3.40;;;;;;;6.47;100.00;99103.78;4772475;30;20092;-79
2022/02/18 10:39:27;;;;;;;28.70;3.85;;;;;;;6.55;100.00;99111.53;4771328;30;20047;-79
2022/02/18 10:42:01;;;;;;;24.70;3.58;;;;;;;6.62;100.00;99113.34;4763288;30;20100;-80
2022/02/18 10:44:30;;;;;;;31.00;3.50;;;;;;;6.47;100.00;99093.09;4772665;30;20054;-80
2022/02/18 10:46:55;;;;;;;29.45;4.15;;;;;;;6.47;100.00;99085.06;4770021;30;20067;-80
2022/02/18 10:49:26;;;;;;;27.13;4.25;;;;;;;6.59;100.00;99112.78;4772819;30;20078;-80
2022/02/18 10:51:53;;;;;;;25.38;3.40;;;;;;;6.53;100.00;99089.56;4776112;30;20073;-80
2022/02/18 10:54:32;;;;;;;27.08;3.75;;;;;;;6.44;100.00;99085.50;4774080;30;20047;-81
2022/02/18 10:57:17;;;;;;;27.00;4.70;;;;;;;6.51;100.00;99096.16;4769338;30;20473;-80
2022/02/18 10:59:43;;;;;;;23.60;3.38;;;;;;;6.51;100.00;99082.78;4777384;30;20035;-79
2022/02/18 11:02:09;;;;;;;24.13;3.53;;;;;;;6.55;100.00;99076.78;4770998;30;20043;-80
2022/02/18 11:04:34;;;;;;;33.83;4.55;;;;;;;6.68;100.00;99067.88;4757965;30;20039;-79
2022/02/18 11:07:14;;;;;;;32.50;4.78;;;;;;;6.78;100.00;99065.53;4771471;30;20071;-78
2022/02/18 11:09:41;;;;;;;29.15;4.28;;;;;;;6.69;100.00;99058.84;4769964;30;20115;-79
2022/02/18 11:12:09;;;;;;;30.13;4.20;;;;;;;6.75;100.00;99054.47;4773527;30;20455;-82
2022/02/18 11:14:36;;;;;;;34.38;3.90;;;;;;;6.82;100.00;99041.84;4773627;29;20052;-80
2022/02/18 11:17:01;;;;;;;29.20;4.70;;;;;;;6.81;100.00;99029.53;4770034;30;20044;-79
2022/02/18 11:19:27;;;;;;;28.73;4.40;;;;;;;6.87;100.00;99020.66;4769317;30;20040;-79
2022/02/18 11:21:53;;;;;;;27.83;4.32;;;;;;;6.81;100.00;99018.84;4768597;30;20047;-80